Time;durP1;ratioP1;P1;durP2;ratioP2;P2;SDS_P1;SDS_P2;PMS_P1;PMS_P2;Temp;Humidity;BMP_temperature;BMP_pressure;BME280_temperature;BME280_humidity;BME280_pressure;Samples;Min_cycle;Max_cycle;Signal;HPM_P1;HPM_P2
2023/08/05 00:00:41;;;;;;;12.03;7.23;;;;;;;25.43;64.20;100272.42;123896;1102;104222;-78
2023/08/05 00:03:27;;;;;;;13.87;8.13;;;;;;;25.35;64.34;100272.64;124464;1099;104344;-78
2023/08/05 00:05:55;;;;;;;17.47;8.30;;;;;;;25.34;64.42;100272.69;124250;1099;104258;-77
2023/08/05 00:08:24;;;;;;;13.10;7.30;;;;;;;25.32;64.84;100264.68;123819;1099;104336;-78
2023/08/05 00:10:53;;;;;;;16.40;8.13;;;;;;;25.28;64.58;100266.58;124518;1099;104268;-78
2023/08/05 00:13:22;;;;;;;14.20;7.20;;;;;;;25.23;64.80;100259.57;124833;1099;104284;-79
2023/08/05 00:15:51;;;;;;;14.47;7.90;;;;;;;25.15;65.36;100261.57;125908;1099;102118;-79
2023/08/05 00:18:19;;;;;;;17.73;7.50;;;;;;;25.12;65.51;100265.24;125933;1099;102103;-78
2023/08/05 00:20:50;;;;;;;13.60;8.10;;;;;;;25.12;65.96;100258.06;125820;1099;104211;-78
2023/08/05 00:23:19;;;;;;;14.27;8.50;;;;;;;25.13;65.96;100258.93;125319;1099;104163;-78
2023/08/05 00:25:48;;;;;;;14.37;7.90;;;;;;;25.10;66.20;100253.65;123964;1099;104316;-78
2023/08/05 00:28:16;;;;;;;14.07;7.60;;;;;;;25.06;66.39;100252.00;124380;1098;104271;-78
2023/08/05 00:30:45;;;;;;;15.57;7.90;;;;;;;25.04;66.75;100254.72;124225;1099;104261;-77
2023/08/05 00:33:14;;;;;;;18.00;8.10;;;;;;;25.03;66.81;100261.00;124226;1099;104418;-77
2023/08/05 00:35:42;;;;;;;12.30;7.53;;;;;;;25.02;66.59;100256.55;124111;1099;104274;-78
2023/08/05 00:38:11;;;;;;;16.37;7.87;;;;;;;25.01;66.81;100259.27;124113;1099;104306;-78
2023/08/05 00:40:41;;;;;;;17.23;8.00;;;;;;;24.98;66.88;100257.58;123829;1099;104341;-78
2023/08/05 00:43:09;;;;;;;14.40;8.20;;;;;;;24.95;67.38;100257.66;123889;1100;104303;-78
2023/08/05 00:45:38;;;;;;;13.47;7.97;;;;;;;24.91;67.58;100261.34;123722;1099;104245;-78
2023/08/05 00:48:07;;;;;;;15.77;8.60;;;;;;;24.86;67.47;100257.91;124244;1098;104235;-78
2023/08/05 00:50:36;;;;;;;15.83;8.03;;;;;;;24.79;67.77;100259.86;124096;1099;104265;-78
2023/08/05 00:53:05;;;;;;;14.33;8.03;;;;;;;24.78;68.37;100257.21;124277;1098;104213;-78
2023/08/05 00:55:34;;;;;;;13.20;8.03;;;;;;;24.72;68.59;100255.59;124402;1099;104204;-77
2023/08/05 00:58:02;;;;;;;16.40;9.40;;;;;;;24.64;69.17;100250.44;124273;1098;104444;-77
2023/08/05 01:00:31;;;;;;;17.00;9.70;;;;;;;24.58;69.68;100247.91;124421;1099;104617;-78
2023/08/05 01:02:59;;;;;;;17.23;10.60;;;;;;;24.50;70.16;100248.08;124416;1099;104245;-78
2023/08/05 01:05:29;;;;;;;16.43;9.63;;;;;;;24.42;70.20;100244.72;124365;1099;104268;-77
2023/08/05 01:08:01;;;;;;;18.70;10.37;;;;;;;24.36;70.34;100245.74;124145;1098;104248;-78
2023/08/05 01:10:30;;;;;;;16.90;9.87;;;;;;;24.36;70.45;100239.52;124100;1098;104382;-78
2023/08/05 01:12:58;;;;;;;15.47;9.27;;;;;;;24.31;70.94;100255.72;124269;1099;104280;-77
2023/08/05 01:15:27;;;;;;;16.65;10.10;;;;;;;24.25;71.76;100247.83;124140;1099;104274;-77
2023/08/05 01:17:57;;;;;;;16.57;9.87;;;;;;;24.24;71.65;100246.05;123765;1099;104264;-77
2023/08/05 01:20:33;;;;;;;17.23;10.33;;;;;;;24.23;72.15;100255.91;123860;1099;104386;-77
2023/08/05 01:23:11;;;;;;;17.27;10.07;;;;;;;24.25;71.97;100252.28;123846;1099;104392;-76
2023/08/05 01:25:41;;;;;;;14.07;8.70;;;;;;;24.25;71.43;100252.28;124098;1099;104219;-77
2023/08/05 01:28:10;;;;;;;15.70;9.47;;;;;;;24.20;72.71;100249.75;124213;1099;104293;-76
2023/08/05 01:30:41;;;;;;;16.10;9.63;;;;;;;24.19;73.02;100242.61;124625;1098;104226;-77
2023/08/05 01:33:15;;;;;;;15.90;9.60;;;;;;;24.18;73.11;100233.70;124719;1098;105255;-77
2023/08/05 01:35:49;;;;;;;15.20;9.10;;;;;;;24.15;73.58;100231.09;124344;1099;104331;-78
2023/08/05 01:38:18;;;;;;;14.33;8.70;;;;;;;24.17;73.68;100241.78;124027;1099;104303;-77
2023/08/05 01:40:46;;;;;;;13.87;8.67;;;;;;;24.16;73.19;100242.69;124370;1099;104259;-77
2023/08/05 01:43:15;;;;;;;16.50;9.40;;;;;;;24.17;73.77;100239.97;124491;1099;104310;-77
2023/08/05 01:45:43;;;;;;;14.00;8.67;;;;;;;24.15;73.91;100241.81;124656;1099;104252;-77
2023/08/05 01:48:12;;;;;;;13.27;8.03;;;;;;;24.12;74.03;100240.98;124750;1099;104442;-77
2023/08/05 01:50:40;;;;;;;15.17;8.10;;;;;;;24.10;73.98;100248.20;124622;1099;104149;-77
2023/08/05 01:53:09;;;;;;;14.30;7.83;;;;;;;24.13;74.21;100237.41;124003;1101;104284;-77
2023/08/05 01:55:37;;;;;;;13.33;8.27;;;;;;;24.14;74.36;100233.81;124363;1099;104348;-77
2023/08/05 01:58:06;;;;;;;11.27;7.73;;;;;;;24.13;74.54;100242.76;124122;1099;104306;-77
2023/08/05 02:00:34;;;;;;;15.50;8.20;;;;;;;24.11;74.60;100233.89;123988;1101;104406;-77
2023/08/05 02:03:03;;;;;;;12.43;8.20;;;;;;;24.13;74.95;100242.76;124129;1099;102151;-77
2023/08/05 02:05:32;;;;;;;14.90;8.60;;;;;;;24.17;75.37;100239.09;124232;1099;104822;-78
2023/08/05 02:08:01;;;;;;;13.83;9.10;;;;;;;24.21;75.06;100240.77;124264;1099;104217;-77
2023/08/05 02:10:29;;;;;;;15.00;9.33;;;;;;;24.23;75.21;100239.81;124326;1099;104302;-78
2023/08/05 02:12:58;;;;;;;16.05;9.45;;;;;;;24.19;75.49;100238.12;124285;1098;104669;-79
2023/08/05 02:15:28;;;;;;;16.13;9.37;;;;;;;24.16;75.52;100238.20;123918;1099;104248;-77
2023/08/05 02:17:56;;;;;;;16.93;9.30;;;;;;;24.10;75.67;100234.80;124219;1099;104396;-77
2023/08/05 02:20:26;;;;;;;17.40;9.63;;;;;;;24.07;75.82;100235.73;124091;1099;104267;-78
2023/08/05 02:22:54;;;;;;;15.65;9.15;;;;;;;24.05;76.07;100235.78;124165;1099;104273;-78
2023/08/05 02:25:23;;;;;;;16.83;9.57;;;;;;;24.04;75.95;100239.39;124229;1099;104296;-77
2023/08/05 02:27:52;;;;;;;16.93;9.33;;;;;;;23.99;76.27;100235.92;124223;1099;104271;-78
2023/08/05 02:30:20;;;;;;;14.80;9.07;;;;;;;23.98;76.44;100244.90;124114;1098;104201;-78
2023/08/05 02:32:49;;;;;;;16.93;9.30;;;;;;;23.98;76.58;100249.36;124014;1099;104325;-78
2023/08/05 02:35:17;;;;;;;13.93;9.10;;;;;;;23.96;76.72;100253.88;123842;1099;104226;-79
2023/08/05 02:37:46;;;;;;;15.97;9.17;;;;;;;23.94;76.75;100253.92;123814;1099;104370;-78
2023/08/05 02:40:15;;;;;;;14.57;8.83;;;;;;;23.93;76.91;100252.14;124174;1098;104191;-78
2023/08/05 02:42:45;;;;;;;13.77;8.63;;;;;;;23.93;77.02;100251.27;124119;1099;104357;-78
2023/08/05 02:45:14;;;;;;;15.27;9.23;;;;;;;23.90;77.68;100246.86;124282;1099;104178;-79
2023/08/05 02:47:43;;;;;;;13.50;8.95;;;;;;;23.91;77.63;100253.12;124130;1098;104377;-78
2023/08/05 02:50:11;;;;;;;15.55;8.90;;;;;;;23.92;77.85;100247.72;124179;1099;104398;-79
2023/08/05 02:52:40;;;;;;;14.60;8.77;;;;;;;23.93;78.25;100251.27;124025;1098;104252;-78
2023/08/05 02:55:09;;;;;;;15.50;9.80;;;;;;;23.96;77.86;100260.11;124140;1099;104171;-77
2023/08/05 02:57:37;;;;;;;16.27;8.97;;;;;;;23.99;78.08;100249.32;124034;1099;104265;-78
2023/08/05 03:00:09;;;;;;;14.93;8.90;;;;;;;24.04;78.13;100252.80;123743;1099;104246;-80
2023/08/05 03:02:37;;;;;;;17.17;9.17;;;;;;;24.04;78.19;100247.44;124174;1099;104686;-79
2023/08/05 03:05:07;;;;;;;13.33;8.67;;;;;;;24.03;78.26;100244.79;124249;1099;104341;-78
2023/08/05 03:07:36;;;;;;;14.80;8.70;;;;;;;24.00;78.23;100242.19;124106;1099;104331;-77
2023/08/05 03:10:07;;;;;;;16.05;8.40;;;;;;;23.98;78.62;100244.90;124039;1099;104348;-77
2023/08/05 03:12:36;;;;;;;13.07;8.57;;;;;;;23.99;78.67;100240.41;124281;1099;104249;-77
2023/08/05 03:15:07;;;;;;;12.17;8.37;;;;;;;23.99;78.47;100240.41;124413;1099;104399;-77
2023/08/05 03:17:36;;;;;;;14.30;8.57;;;;;;;23.97;78.96;100245.81;124615;1099;104219;-77
2023/08/05 03:20:22;;;;;;;15.60;8.50;;;;;;;24.01;79.12;100250.19;124244;1099;104163;-77
2023/08/05 03:22:51;;;;;;;14.03;8.37;;;;;;;24.04;79.23;100254.57;124227;1098;104217;-77
2023/08/05 03:25:20;;;;;;;13.40;8.70;;;;;;;24.10;78.94;100248.20;124425;1099;104361;-78
2023/08/05 03:27:50;;;;;;;14.50;8.50;;;;;;;24.11;79.51;100249.97;124993;1099;104399;-78
2023/08/05 03:30:19;;;;;;;16.73;9.27;;;;;;;24.13;79.44;100254.36;124076;1099;104309;-78
2023/08/05 03:32:50;;;;;;;15.60;9.00;;;;;;;24.16;79.32;100248.05;123871;1098;104438;-78
2023/08/05 03:35:19;;;;;;;16.53;9.70;;;;;;;24.19;79.31;100240.80;124115;1099;104351;-77
2023/08/05 03:37:48;;;;;;;14.47;9.30;;;;;;;24.18;79.38;100240.84;124333;1099;104251;-77
2023/08/05 03:40:17;;;;;;;17.03;9.03;;;;;;;24.17;79.56;100245.33;124156;1099;104402;-77
2023/08/05 03:42:46;;;;;;;16.40;9.00;;;;;;;24.19;79.52;100247.97;123912;1099;104278;-77
2023/08/05 03:45:15;;;;;;;14.47;9.10;;;;;;;24.19;79.26;100248.84;124039;1099;104277;-77
2023/08/05 03:47:44;;;;;;;14.97;8.80;;;;;;;24.20;79.39;100258.66;124048;1099;104345;-77
2023/08/05 03:50:12;;;;;;;16.37;9.60;;;;;;;24.18;79.57;100251.56;124160;1099;104288;-77
2023/08/05 03:52:42;;;;;;;17.63;10.37;;;;;;;24.13;79.25;100256.16;124139;1099;104335;-77
2023/08/05 03:55:11;;;;;;;15.17;9.60;;;;;;;24.12;79.26;100246.34;123897;1099;104313;-77
2023/08/05 03:57:40;;;;;;;15.33;9.40;;;;;;;24.14;79.17;100260.62;123880;1099;104329;-77
2023/08/05 04:00:11;;;;;;;15.73;9.13;;;;;;;24.15;79.19;100259.67;124423;1098;104280;-77
2023/08/05 04:02:42;;;;;;;15.80;9.20;;;;;;;24.16;79.51;100261.45;124344;1098;104269;-77
2023/08/05 04:05:11;;;;;;;13.93;9.50;;;;;;;24.19;79.31;100264.92;123703;1102;104406;-77
2023/08/05 04:07:40;;;;;;;15.57;9.13;;;;;;;24.23;79.78;100271.09;123863;1103;104371;-77
2023/08/05 04:10:12;;;;;;;13.23;9.17;;;;;;;24.19;79.27;100269.42;123894;1099;104364;-76
2023/08/05 04:12:40;;;;;;;13.30;8.47;;;;;;;24.12;79.94;100266.02;124894;1098;104227;-76
2023/08/05 04:15:13;;;;;;;14.30;8.53;;;;;;;24.07;79.53;100267.03;124645;1099;104325;-76
2023/08/05 04:17:44;;;;;;;13.73;8.43;;;;;;;24.05;79.98;100269.75;124106;1099;104332;-76
2023/08/05 04:20:13;;;;;;;13.53;8.73;;;;;;;24.04;79.80;100263.52;123877;1099;104277;-77
2023/08/05 04:22:43;;;;;;;16.23;9.47;;;;;;;24.09;79.94;100262.50;124036;1099;104354;-76
2023/08/05 04:25:12;;;;;;;15.30;9.40;;;;;;;24.17;79.54;100257.86;124263;1099;104249;-77
2023/08/05 04:27:40;;;;;;;14.07;9.37;;;;;;;24.26;79.70;100254.92;124198;1099;104241;-77
2023/08/05 04:30:11;;;;;;;16.27;9.83;;;;;;;24.28;80.09;100261.16;124472;1098;104402;-77
2023/08/05 04:32:39;;;;;;;14.93;8.77;;;;;;;24.29;79.90;100262.02;124544;1099;104210;-76
2023/08/05 04:35:09;;;;;;;12.77;8.67;;;;;;;24.32;80.01;100270.86;124691;1099;104252;-76
2023/08/05 04:37:38;;;;;;;14.90;8.70;;;;;;;24.32;80.06;100270.86;124761;1099;104270;-77
2023/08/05 04:40:08;;;;;;;16.03;9.67;;;;;;;24.26;79.57;100271.01;124555;1099;104300;-76
2023/08/05 04:42:36;;;;;;;13.83;8.73;;;;;;;24.23;80.20;100271.98;124110;1099;104402;-76
2023/08/05 04:45:08;;;;;;;12.77;8.97;;;;;;;24.26;80.03;100281.73;124102;1099;104319;-76
2023/08/05 04:47:37;;;;;;;14.50;9.03;;;;;;;24.35;80.15;100281.52;124181;1098;104393;-77
2023/08/05 04:50:07;;;;;;;13.73;8.63;;;;;;;24.49;80.09;100278.48;124050;1099;104245;-77
2023/08/05 04:52:36;;;;;;;14.45;8.85;;;;;;;24.57;80.23;100279.23;124313;1099;104235;-78
2023/08/05 04:55:10;;;;;;;11.73;7.97;;;;;;;24.60;79.95;100278.25;123706;1099;104397;-77
2023/08/05 04:57:38;;;;;;;12.17;8.00;;;;;;;24.64;79.77;100281.75;124150;1099;104727;-77
2023/08/05 05:00:09;;;;;;;12.93;8.30;;;;;;;24.65;79.97;100287.08;124216;1099;104283;-78
2023/08/05 05:02:38;;;;;;;13.90;8.37;;;;;;;24.69;79.90;100283.38;124373;1099;104285;-78
2023/08/05 05:05:09;;;;;;;15.05;8.55;;;;;;;24.81;79.68;100289.33;124351;1099;104242;-79
2023/08/05 05:07:37;;;;;;;13.70;8.10;;;;;;;24.84;79.67;100289.25;124202;1099;104540;-79
2023/08/05 05:10:08;;;;;;;10.83;7.87;;;;;;;24.86;79.63;100288.30;124283;1098;102067;-79
2023/08/05 05:12:37;;;;;;;14.27;8.60;;;;;;;24.86;79.69;100290.11;124076;1099;104235;-78
2023/08/05 05:15:07;;;;;;;12.17;7.83;;;;;;;24.91;79.78;100280.13;124168;1099;104259;-78
2023/08/05 05:17:36;;;;;;;15.50;8.27;;;;;;;24.96;79.45;100288.92;124246;1099;104385;-78
2023/08/05 05:20:06;;;;;;;13.97;7.87;;;;;;;24.99;79.37;100291.52;124536;1099;104290;-78
2023/08/05 05:22:35;;;;;;;13.23;7.70;;;;;;;24.98;79.22;100287.09;124191;1099;104278;-78
2023/08/05 05:25:04;;;;;;;13.30;8.40;;;;;;;24.94;78.95;100283.59;124094;1099;104283;-76
2023/08/05 05:27:32;;;;;;;13.33;7.97;;;;;;;24.89;79.47;100290.03;123999;1099;104281;-77
2023/08/05 05:30:02;;;;;;;13.47;7.63;;;;;;;24.88;78.91;100285.58;124012;1099;104313;-77
2023/08/05 05:32:30;;;;;;;12.20;7.80;;;;;;;24.83;78.93;100277.64;123831;1099;104376;-76
2023/08/05 05:34:59;;;;;;;13.43;8.33;;;;;;;24.83;78.93;100271.41;124170;1098;104316;-77
2023/08/05 05:37:27;;;;;;;15.13;8.27;;;;;;;24.82;78.94;100267.83;124232;1099;104245;-77
2023/08/05 05:39:56;;;;;;;13.77;7.77;;;;;;;24.86;79.15;100274.87;124234;1098;104245;-77
2023/08/05 05:42:24;;;;;;;10.93;7.10;;;;;;;24.90;79.09;100272.98;124313;1099;104271;-76
2023/08/05 05:44:53;;;;;;;12.00;8.20;;;;;;;24.91;78.99;100274.76;124016;1099;104242;-77
2023/08/05 05:47:22;;;;;;;10.60;7.20;;;;;;;24.93;79.01;100275.58;124060;1099;105713;-77
2023/08/05 05:49:50;;;;;;;13.53;8.30;;;;;;;24.97;78.61;100271.91;124105;1099;104683;-76
2023/08/05 05:52:19;;;;;;;11.63;7.43;;;;;;;24.96;78.85;100264.77;124180;1099;104629;-76
2023/08/05 05:54:47;;;;;;;13.13;8.80;;;;;;;24.96;78.30;100269.27;124221;1099;104302;-77
2023/08/05 05:57:16;;;;;;;15.10;8.80;;;;;;;24.97;78.67;100269.22;124135;1099;104223;-76
2023/08/05 05:59:45;;;;;;;13.05;8.20;;;;;;;25.01;78.87;100273.59;124091;1099;104278;-77
2023/08/05 06:02:13;;;;;;;14.37;8.60;;;;;;;25.04;78.75;100275.30;124030;1099;104200;-76
2023/08/05 06:04:44;;;;;;;13.47;8.40;;;;;;;25.03;78.18;100269.05;123901;1099;104331;-77
2023/08/05 06:07:12;;;;;;;13.00;7.17;;;;;;;25.06;78.26;100263.60;124076;1099;104284;-75
2023/08/05 06:09:41;;;;;;;12.33;7.97;;;;;;;25.09;78.32;100271.56;124105;1099;104367;-76
2023/08/05 06:12:10;;;;;;;12.40;7.30;;;;;;;25.11;78.22;100267.02;124158;1099;104223;-77
2023/08/05 06:14:38;;;;;;;14.77;7.70;;;;;;;25.16;78.48;100260.66;124036;1099;104242;-76
2023/08/05 06:17:07;;;;;;;14.53;7.90;;;;;;;25.19;78.41;100265.94;124091;1099;104236;-76
2023/08/05 06:19:35;;;;;;;13.17;7.87;;;;;;;25.19;77.74;100268.63;124050;1099;104255;-77
2023/08/05 06:22:05;;;;;;;11.30;7.33;;;;;;;25.22;78.40;100277.46;124043;1099;104223;-77
2023/08/05 06:24:34;;;;;;;14.77;7.40;;;;;;;25.28;77.79;100287.16;123951;1099;104670;-77
2023/08/05 06:27:03;;;;;;;12.63;7.40;;;;;;;25.32;77.75;100271.86;124003;1099;104348;-77
2023/08/05 06:29:32;;;;;;;11.53;7.17;;;;;;;25.39;77.69;100281.52;124087;1099;104217;-75
2023/08/05 06:32:00;;;;;;;12.77;7.77;;;;;;;25.45;77.47;100276.84;123822;1099;104975;-78
2023/08/05 06:34:29;;;;;;;12.20;7.25;;;;;;;25.51;77.89;100270.41;123906;1099;104262;-76
2023/08/05 06:36:57;;;;;;;14.13;7.53;;;;;;;25.58;77.80;100274.66;123770;1099;104326;-76
2023/08/05 06:39:26;;;;;;;13.63;7.27;;;;;;;25.65;77.32;100278.06;123694;1099;104389;-76
2023/08/05 06:41:54;;;;;;;11.20;6.70;;;;;;;25.71;77.32;100269.81;124142;1099;104235;-76
2023/08/05 06:44:23;;;;;;;9.90;6.87;;;;;;;25.81;77.35;100276.65;123863;1099;104719;-75
2023/08/05 06:46:52;;;;;;;10.50;7.03;;;;;;;25.90;76.50;100274.59;123896;1099;104338;-76
2023/08/05 06:49:20;;;;;;;12.55;6.90;;;;;;;25.99;76.40;100271.65;123577;1099;104321;-76
2023/08/05 06:51:50;;;;;;;12.13;7.07;;;;;;;26.11;76.78;100267.70;123611;1099;104223;-75
2023/08/05 06:54:19;;;;;;;11.90;7.10;;;;;;;26.18;76.35;100262.08;123954;1099;104277;-76
2023/08/05 06:56:47;;;;;;;11.17;7.07;;;;;;;26.28;75.62;100261.77;123711;1099;104295;-76
2023/08/05 06:59:16;;;;;;;12.13;6.93;;;;;;;26.41;75.50;100270.30;123562;1099;104181;-75
2023/08/05 07:01:44;;;;;;;11.27;7.00;;;;;;;26.47;75.69;100251.27;123612;1099;104279;-77
2023/08/05 07:04:14;;;;;;;12.93;7.00;;;;;;;26.60;74.86;100258.00;123565;1099;104341;-77
2023/08/05 07:06:44;;;;;;;11.03;7.00;;;;;;;26.76;74.69;100246.73;123683;1099;104267;-77
2023/08/05 07:09:13;;;;;;;13.23;6.87;;;;;;;26.89;74.02;100250.73;123763;1099;117770;-75
2023/08/05 07:11:41;;;;;;;10.73;6.90;;;;;;;27.02;74.16;100245.77;123942;1099;104288;-76
2023/08/05 07:14:10;;;;;;;12.13;7.03;;;;;;;27.13;73.59;100246.27;123779;1098;104239;-77
2023/08/05 07:16:38;;;;;;;11.77;6.47;;;;;;;27.25;72.76;100243.13;123957;1099;104248;-75
2023/08/05 07:19:07;;;;;;;9.97;6.47;;;;;;;27.44;72.43;100251.41;123841;1099;104197;-75
2023/08/05 07:21:35;;;;;;;10.00;7.03;;;;;;;27.58;71.82;100248.19;123883;1099;104242;-76
2023/08/05 07:24:05;;;;;;;10.03;6.13;;;;;;;27.72;71.77;100246.75;123774;1099;104275;-76
2023/08/05 07:26:33;;;;;;;10.53;6.70;;;;;;;27.83;71.36;100238.23;123718;1099;104255;-77
2023/08/05 07:29:02;;;;;;;11.67;6.80;;;;;;;27.97;71.09;100233.19;123479;1099;104264;-76
2023/08/05 07:31:30;;;;;;;11.37;6.27;;;;;;;28.11;70.57;100232.63;125203;1099;104293;-76
2023/08/05 07:33:59;;;;;;;10.73;6.10;;;;;;;28.28;70.17;100245.41;125505;1099;104270;-76
2023/08/05 07:36:28;;;;;;;13.00;5.97;;;;;;;28.43;70.20;100233.11;125587;1099;104309;-78
2023/08/05 07:38:58;;;;;;;10.07;6.23;;;;;;;28.57;69.35;100244.18;125681;1099;104194;-77
2023/08/05 07:41:26;;;;;;;8.60;5.80;;;;;;;28.73;68.76;100254.34;125043;1099;104268;-77
2023/08/05 07:43:58;;;;;;;10.97;6.30;;;;;;;28.90;68.30;100248.20;124126;1099;104268;-77
2023/08/05 07:46:30;;;;;;;11.17;5.80;;;;;;;29.04;67.79;100254.72;124010;1099;104316;-76
2023/08/05 07:49:00;;;;;;;12.03;6.47;;;;;;;29.20;66.34;100249.56;123940;1099;104372;-77
2023/08/05 07:51:29;;;;;;;11.03;6.03;;;;;;;29.36;66.71;100249.72;123768;1098;104274;-76
2023/08/05 07:53:58;;;;;;;7.70;5.90;;;;;;;29.51;65.81;100237.30;123816;1099;104360;-76
2023/08/05 07:56:26;;;;;;;10.80;6.40;;;;;;;29.63;65.71;100235.84;123923;1099;104344;-77
2023/08/05 07:58:55;;;;;;;8.17;5.43;;;;;;;29.72;65.28;100234.55;123900;1099;104352;-77
2023/08/05 08:01:24;;;;;;;9.40;5.77;;;;;;;29.82;64.52;100225.05;123811;1099;104347;-77
2023/08/05 08:03:53;;;;;;;8.43;5.77;;;;;;;29.96;64.07;100218.09;124047;1099;104645;-76
2023/08/05 08:06:22;;;;;;;8.40;5.80;;;;;;;30.05;63.61;100215.80;124008;1099;104319;-76
2023/08/05 08:08:51;;;;;;;9.27;5.53;;;;;;;30.22;63.12;100211.38;123809;1099;104853;-75
2023/08/05 08:11:20;;;;;;;12.83;6.10;;;;;;;30.35;62.72;100207.08;123590;1099;104364;-77
2023/08/05 08:13:48;;;;;;;8.90;6.00;;;;;;;30.52;61.70;100208.08;123618;1099;104347;-74
2023/08/05 08:16:18;;;;;;;9.50;5.47;;;;;;;30.58;61.67;100215.88;124055;1099;104235;-76
2023/08/05 08:18:47;;;;;;;8.83;5.73;;;;;;;30.65;61.03;100220.90;124007;1099;104318;-75
2023/08/05 08:21:15;;;;;;;12.10;6.07;;;;;;;30.77;61.00;100224.77;123821;1098;104457;-75
2023/08/05 08:23:43;;;;;;;9.07;5.70;;;;;;;30.89;60.33;100212.42;124033;1099;104242;-79
2023/08/05 08:26:12;;;;;;;8.33;5.50;;;;;;;31.03;60.12;100209.01;123871;1099;104380;-77
2023/08/05 08:28:40;;;;;;;13.67;5.90;;;;;;;31.10;59.18;100221.23;124562;1099;104283;-79
2023/08/05 08:31:09;;;;;;;10.57;5.57;;;;;;;31.13;58.66;100212.95;124658;1099;104254;-77
2023/08/05 08:33:37;;;;;;;12.20;5.70;;;;;;;31.21;58.09;100212.53;124316;1099;104248;-76
2023/08/05 08:36:06;;;;;;;10.83;5.90;;;;;;;31.29;57.66;100202.16;124512;1098;104239;-77
2023/08/05 08:38:35;;;;;;;7.70;5.40;;;;;;;31.43;57.89;100203.20;124571;1099;104213;-77
2023/08/05 08:41:04;;;;;;;11.07;5.90;;;;;;;31.50;57.29;100201.91;123946;1099;104273;-78
2023/08/05 08:43:32;;;;;;;8.93;5.80;;;;;;;31.58;56.55;100206.94;124168;1099;104657;-78
2023/08/05 08:46:02;;;;;;;11.43;5.60;;;;;;;31.57;56.42;100205.17;124451;1099;104265;-75
2023/08/05 08:48:32;;;;;;;7.63;5.10;;;;;;;31.65;56.09;100194.76;123830;1099;104281;-75
2023/08/05 08:51:44;;;;;;;10.20;5.55;;;;;;;31.81;55.61;100190.22;123918;1099;104261;-75
2023/08/05 08:54:17;;;;;;;10.70;5.43;;;;;;;31.95;55.75;100181.27;124216;1099;104171;-75
2023/08/05 08:56:46;;;;;;;9.87;5.60;;;;;;;32.04;55.00;100182.59;124045;1098;104653;-79
2023/08/05 08:59:14;;;;;;;8.75;5.50;;;;;;;32.20;53.88;100175.30;123917;1099;104267;-76
2023/08/05 09:01:46;;;;;;;7.77;5.13;;;;;;;32.32;53.74;100189.09;124139;1099;104188;-76
2023/08/05 09:04:16;;;;;;;9.20;5.37;;;;;;;32.41;52.78;100184.00;124198;1099;104322;-77
2023/08/05 09:06:47;;;;;;;11.80;5.33;;;;;;;32.39;52.14;100176.91;123910;1099;104277;-77
2023/08/05 09:09:16;;;;;;;11.87;5.63;;;;;;;32.49;52.13;100179.92;124074;1099;104259;-75
2023/08/05 09:11:44;;;;;;;10.03;5.50;;;;;;;32.58;51.92;100166.68;124610;1099;104281;-76
2023/08/05 09:14:16;;;;;;;8.00;5.13;;;;;;;32.70;51.78;100165.06;124311;1099;104245;-79
2023/08/05 09:17:01;;;;;;;14.67;5.20;;;;;;;32.78;51.36;100164.58;124383;1099;104383;-77
2023/08/05 09:19:30;;;;;;;8.53;5.33;;;;;;;32.89;51.24;100172.06;123913;1099;104277;-78
2023/08/05 09:22:02;;;;;;;7.53;5.27;;;;;;;33.04;51.07;100157.51;123796;1099;104239;-77
2023/08/05 09:24:30;;;;;;;7.97;4.87;;;;;;;33.07;50.90;100160.03;124128;1099;104268;-79
2023/08/05 09:27:01;;;;;;;8.60;4.97;;;;;;;33.17;49.23;100152.15;124512;1099;104226;-76
2023/08/05 09:29:29;;;;;;;8.50;4.20;;;;;;;33.26;48.47;100159.75;124009;1099;104400;-76
2023/08/05 09:32:00;;;;;;;6.93;4.63;;;;;;;33.26;47.76;100162.47;123988;1099;104246;-75
2023/08/05 09:34:34;;;;;;;10.53;4.90;;;;;;;33.28;47.24;100156.93;123749;1099;104341;-77
2023/08/05 09:37:04;;;;;;;6.23;4.30;;;;;;;33.41;46.79;100143.41;123882;1099;104236;-77
2023/08/05 09:39:46;;;;;;;8.43;4.87;;;;;;;33.46;45.95;100153.02;123952;1099;104267;-79
2023/08/05 09:42:20;;;;;;;7.23;4.60;;;;;;;33.47;45.85;100141.17;124092;1099;107934;-79
2023/08/05 09:44:49;;;;;;;6.07;4.70;;;;;;;33.43;45.63;100150.50;124206;1099;104239;-77
2023/08/05 09:47:23;;;;;;;8.13;4.73;;;;;;;33.39;45.25;100140.78;124004;1099;104284;-78
2023/08/05 09:49:53;;;;;;;6.23;4.57;;;;;;;33.36;45.02;100135.55;124116;1099;104175;-77
2023/08/05 09:52:23;;;;;;;6.87;4.50;;;;;;;33.50;45.41;100132.81;124376;1099;104399;-77
2023/08/05 09:55:04;;;;;;;7.27;4.43;;;;;;;33.64;44.66;100131.00;124483;1099;104196;-79
2023/08/05 09:57:33;;;;;;;8.70;5.07;;;;;;;33.88;44.25;100131.25;124169;1099;104651;-76
2023/08/05 10:00:07;;;;;;;7.77;4.27;;;;;;;33.99;44.11;100122.36;124290;1099;104271;-77
2023/08/05 10:02:40;;;;;;;9.37;4.40;;;;;;;34.02;43.77;100125.73;124321;1099;104174;-77
2023/08/05 10:05:09;;;;;;;8.53;4.53;;;;;;;34.07;43.15;100125.42;124187;1099;102112;-77
2023/08/05 10:07:40;;;;;;;9.23;4.37;;;;;;;34.02;42.93;100122.15;124396;1099;104325;-79
2023/08/05 10:10:12;;;;;;;6.83;4.07;;;;;;;34.00;42.56;100118.64;124066;1099;104616;-78
2023/08/05 10:12:48;;;;;;;7.47;4.40;;;;;;;34.03;42.69;100118.42;123879;1099;104271;-78
2023/08/05 10:15:25;;;;;;;6.87;4.43;;;;;;;33.99;42.32;100109.61;124108;1099;104238;-80
2023/08/05 10:17:56;;;;;;;8.73;4.50;;;;;;;34.07;42.13;100105.50;124472;1102;104296;-83
2023/08/05 10:20:25;;;;;;;5.97;4.47;;;;;;;34.16;41.95;100104.87;124139;1099;104236;-78
2023/08/05 10:23:04;;;;;;;7.50;4.40;;;;;;;34.09;41.84;100096.23;124256;1099;104277;-77
2023/08/05 10:25:40;;;;;;;10.60;4.40;;;;;;;34.06;41.86;100098.30;124006;1099;104190;-80
2023/08/05 10:28:09;;;;;;;6.47;4.10;;;;;;;34.03;41.20;100100.27;125130;1099;104243;-79
2023/08/05 10:30:44;;;;;;;6.83;4.60;;;;;;;34.04;40.63;100090.24;124459;1099;104178;-78
2023/08/05 10:33:13;;;;;;;7.53;4.37;;;;;;;33.99;40.61;100096.00;124079;1099;104357;-80
2023/08/05 10:35:42;;;;;;;5.90;4.40;;;;;;;34.04;40.72;100077.49;124519;1099;104316;-80
2023/08/05 10:38:14;;;;;;;7.97;4.50;;;;;;;34.08;40.02;100085.45;124748;1099;104277;-80
2023/08/05 10:40:48;;;;;;;8.00;4.63;;;;;;;34.02;39.71;100076.73;124327;1099;104702;-78
2023/08/05 10:43:34;;;;;;;7.63;4.40;;;;;;;33.88;39.97;100073.21;124395;1099;104395;-81
2023/08/05 10:46:14;;;;;;;9.40;4.40;;;;;;;33.85;39.38;100068.88;124605;1099;104249;-85
2023/08/05 10:48:44;;;;;;;7.95;4.25;;;;;;;33.90;39.27;100080.30;124612;1099;104220;-79
2023/08/05 10:51:14;;;;;;;6.20;4.27;;;;;;;33.93;39.40;100068.34;124303;1099;104268;-80
2023/08/05 10:53:58;;;;;;;8.60;4.20;;;;;;;33.93;39.15;100066.48;124286;1099;104264;-78
2023/08/05 10:56:31;;;;;;;9.03;4.47;;;;;;;33.96;38.95;100059.97;124361;1099;104268;-82
2023/08/05 10:59:02;;;;;;;7.57;4.37;;;;;;;34.04;38.58;100055.72;124285;1098;104274;-81
2023/08/05 11:01:53;;;;;;;11.20;4.40;;;;;;;34.09;37.80;100047.23;124192;1099;104210;-79
2023/08/05 11:04:28;;;;;;;7.93;4.30;;;;;;;34.19;37.58;100045.62;124177;1099;109464;-81
2023/08/05 11:07:00;;;;;;;6.60;3.80;;;;;;;34.18;36.97;100043.00;124353;1099;104313;-80
2023/08/05 11:09:32;;;;;;;8.17;3.90;;;;;;;34.21;36.64;100049.09;124298;1099;104238;-81
2023/08/05 11:12:00;;;;;;;8.33;4.20;;;;;;;34.23;36.49;100035.38;124693;1099;104267;-80
2023/08/05 11:14:30;;;;;;;6.97;3.80;;;;;;;34.29;36.35;100037.70;124471;1099;104242;-82
2023/08/05 11:17:05;;;;;;;4.50;3.85;;;;;;;34.32;35.32;100034.75;124459;1099;104457;-83